首页
METAR-TAF:

METAR-TAF

机场 :

匹兹堡国际机场

匹兹堡, 宾夕法尼亚州, 美国

纬度: 40-30-14N, 经度: 080-15-59W, 海拔: 366米

当前天气观测

该预报发布于31分钟前的06:51 UTC
风速4节,风向西南
温度 25°C
湿度 74%
气压 1019 hPa
能見度: 16.1公里
少量云层高于25000英尺

METAR: KPIT 180651Z 22004KT 10SM FEW250 25/20 A3008 RMK AO2 SLP181 T02500200

时间: 03:22 (07:22 UTC)

预报

该预报发布于1小时和59分钟前的05:23 UTC
预报有效从18日的 06点(UTC)到 19日的 12点(UTC)
风速5节,风向西南
能見度: 10公里
散云层高于25000英尺
从 18日的 1500点(UTC)
风速10节,风向西
能見度: 10公里
散云层高于4000英尺
从 19日的 0300点(UTC)
风速8节,风向西转西南
能見度: 10公里
多云层高于5000英尺, 积雨云.
附近有雷暴
从 19日的 0600点(UTC)
风速8节,风向西
能見度: 10公里
多云层高于3500英尺
附近有阵雨

TAF: KPIT 180523Z 1806/1912 22005KT P6SM SCT250 FM181500 26010KT P6SM SCT040 FM190300 25008KT P6SM VCTS BKN050CB FM190600 27008KT P6SM VCSH BKN035

超过4000个机场的气象观测和天气预报(METAR&TAF报告)。

可查询的气象台以黄色和红色小点在地图上表示。

将鼠标移到小点上方,可查看气象台名称。

然后点击查看天气观测和预报。

如需切换地图:点击带黑十字的绿色按钮放大地图;点击带横线的绿色按钮缩小地图;或者点击绿色箭头查看邻近地区的地图。


METAR-TAF: